This is the latest recevied weather packets stored in our database for station/object KE6JJJ-1. If no packets are shown the sender has not sent any weather packets the latest 10 day(s).
| Time | Temp. | Humidity | Pressure | Rain* | Wind** | Luminosity | Snow |
|---|---|---|---|---|---|---|---|
| 1777953904 | 13.89° C | 73% | 1015.4 hPa | 0 mm | - | 0 W/m² | - |
| 1777950303 | 14.44° C | 78% | 1014.6 hPa | 0 mm | - | 0 W/m² | - |
| 1777948503 | 14.44° C | 77% | 1014.7 hPa | 0 mm | - | 13 W/m² | - |
| 1777946703 | 14.44° C | 78% | 1014.4 hPa | 0 mm | - | 47 W/m² | - |
| 1777944903 | 15° C | 77% | 1014.8 hPa | 0 mm | - | 86 W/m² | - |
| 1777943103 | 15.56° C | 77% | 1014.9 hPa | 0 mm | - | 113 W/m² | - |
| 1777941303 | 15.56° C | 76% | 1015.2 hPa | 0 mm | - | 107 W/m² | - |
| 1777939503 | 16.11° C | 75% | 1015.3 hPa | 0 mm | - | 137 W/m² | - |
| 1777937703 | 16.11° C | 74% | 1015.1 hPa | 0 mm | - | 294 W/m² | - |
| 1777935903 | 16.11° C | 73% | 1015.2 hPa | 0 mm | - | 265 W/m² | - |
| 1777934103 | 16.67° C | 70% | 1015.3 hPa | 0 mm | - | 301 W/m² | - |
| 1777932303 | 17.78° C | 67% | 1015.4 hPa | 0 mm | - | 482 W/m² | - |
| 1777930503 | 17.78° C | 66% | 1015.1 hPa | 0 mm | - | 454 W/m² | - |
| 1777928703 | 17.78° C | 64% | 1015.3 hPa | 0 mm | - | 656 W/m² | - |
| 1777926904 | 18.33° C | 64% | 1015.4 hPa | 0 mm | - | 478 W/m² | - |
| 1777925104 | 18.33° C | 64% | 1015.2 hPa | 0 mm | - | 517 W/m² | - |
| 1777923303 | 17.22° C | 69% | 1015.7 hPa | 0 mm | - | 812 W/m² | - |
| 1777921503 | 17.78° C | 70% | 1015.5 hPa | 0 mm | - | 473 W/m² | - |
| 1777919703 | 17.22° C | 67% | 1015.5 hPa | 0 mm | - | 582 W/m² | - |
| 1777917904 | 16.67° C | 70% | 1015.7 hPa | 0 mm | - | 434 W/m² | - |
| 1777916103 | 17.22° C | 68% | 1015.1 hPa | 0 mm | - | 318 W/m² | - |
| 1777914303 | 17.22° C | 68% | 1014.8 hPa | 0 mm | - | 707 W/m² | - |
| 1777912503 | 16.11° C | 73% | 1014.8 hPa | 0 mm | - | 172 W/m² | - |
| 1777910703 | 16.11° C | 74% | 1014.9 hPa | 0 mm | - | 190 W/m² | - |
| 1777908903 | 15.56° C | 79% | 1014.8 hPa | 0 mm | - | 120 W/m² | - |
* Rain latest hour (hover to see other rain measurements)
** Current wind speed in m/s (hover to see current wind gust speed)